sensor_id;sensor_type;location;lat;lon;timestamp;P1;durP1;ratioP1;P2;durP2;ratioP2
30096;SDS011;16915;51.466;3.610;2023-07-24T00:01:11;3.58;;;3.00;;
30096;SDS011;16915;51.466;3.610;2023-07-24T00:03:37;5.72;;;3.20;;
30096;SDS011;16915;51.466;3.610;2023-07-24T00:06:02;2.90;;;2.63;;
30096;SDS011;16915;51.466;3.610;2023-07-24T00:08:28;3.22;;;2.58;;
30096;SDS011;16915;51.466;3.610;2023-07-24T00:10:53;7.40;;;2.70;;
30096;SDS011;16915;51.466;3.610;2023-07-24T00:13:19;2.58;;;2.33;;
30096;SDS011;16915;51.466;3.610;2023-07-24T00:15:45;3.28;;;2.50;;
30096;SDS011;16915;51.466;3.610;2023-07-24T00:18:10;2.78;;;2.58;;
30096;SDS011;16915;51.466;3.610;2023-07-24T00:20:36;3.13;;;2.75;;
30096;SDS011;16915;51.466;3.610;2023-07-24T00:23:01;2.85;;;2.50;;
30096;SDS011;16915;51.466;3.610;2023-07-24T00:25:27;7.07;;;3.22;;
30096;SDS011;16915;51.466;3.610;2023-07-24T00:27:52;4.03;;;2.67;;
30096;SDS011;16915;51.466;3.610;2023-07-24T00:30:18;3.75;;;2.80;;
30096;SDS011;16915;51.466;3.610;2023-07-24T00:32:44;5.35;;;3.15;;
30096;SDS011;16915;51.466;3.610;2023-07-24T00:35:09;3.95;;;3.03;;
30096;SDS011;16915;51.466;3.610;2023-07-24T00:37:35;3.30;;;3.00;;
30096;SDS011;16915;51.466;3.610;2023-07-24T00:40:01;3.83;;;2.78;;
30096;SDS011;16915;51.466;3.610;2023-07-24T00:42:27;3.92;;;2.95;;
30096;SDS011;16915;51.466;3.610;2023-07-24T00:44:53;4.47;;;3.08;;
30096;SDS011;16915;51.466;3.610;2023-07-24T00:47:18;3.20;;;2.90;;
30096;SDS011;16915;51.466;3.610;2023-07-24T00:49:44;3.95;;;3.35;;
30096;SDS011;16915;51.466;3.610;2023-07-24T00:52:10;4.43;;;3.17;;
30096;SDS011;16915;51.466;3.610;2023-07-24T00:54:36;3.67;;;2.95;;
30096;SDS011;16915;51.466;3.610;2023-07-24T00:57:03;3.33;;;3.03;;
30096;SDS011;16915;51.466;3.610;2023-07-24T00:59:30;3.25;;;2.92;;
30096;SDS011;16915;51.466;3.610;2023-07-24T01:01:56;6.90;;;3.15;;
30096;SDS011;16915;51.466;3.610;2023-07-24T01:04:22;3.90;;;2.90;;
30096;SDS011;16915;51.466;3.610;2023-07-24T01:06:48;6.13;;;2.95;;
30096;SDS011;16915;51.466;3.610;2023-07-24T01:09:14;3.40;;;3.10;;
30096;SDS011;16915;51.466;3.610;2023-07-24T01:12:03;3.13;;;2.85;;
30096;SDS011;16915;51.466;3.610;2023-07-24T01:14:47;7.60;;;3.25;;
30096;SDS011;16915;51.466;3.610;2023-07-24T01:17:20;5.70;;;3.53;;
30096;SDS011;16915;51.466;3.610;2023-07-24T01:19:51;4.15;;;3.05;;
30096;SDS011;16915;51.466;3.610;2023-07-24T01:27:28;9.05;;;3.38;;
30096;SDS011;16915;51.466;3.610;2023-07-24T01:29:54;6.82;;;3.25;;
30096;SDS011;16915;51.466;3.610;2023-07-24T01:32:20;5.38;;;3.55;;
30096;SDS011;16915;51.466;3.610;2023-07-24T01:34:46;5.65;;;3.60;;
30096;SDS011;16915;51.466;3.610;2023-07-24T01:37:12;4.15;;;3.72;;
30096;SDS011;16915;51.466;3.610;2023-07-24T01:39:40;6.70;;;3.63;;
30096;SDS011;16915;51.466;3.610;2023-07-24T01:42:07;5.95;;;3.90;;
30096;SDS011;16915;51.466;3.610;2023-07-24T01:44:33;7.28;;;4.03;;
30096;SDS011;16915;51.466;3.610;2023-07-24T01:46:58;5.97;;;3.92;;
30096;SDS011;16915;51.466;3.610;2023-07-24T01:49:24;4.63;;;4.03;;
30096;SDS011;16915;51.466;3.610;2023-07-24T01:51:49;4.00;;;3.53;;
30096;SDS011;16915;51.466;3.610;2023-07-24T01:54:15;4.85;;;4.03;;
30096;SDS011;16915;51.466;3.610;2023-07-24T01:56:40;8.57;;;4.07;;
30096;SDS011;16915;51.466;3.610;2023-07-24T01:59:06;6.43;;;4.15;;
30096;SDS011;16915;51.466;3.610;2023-07-24T02:01:32;6.22;;;4.18;;
30096;SDS011;16915;51.466;3.610;2023-07-24T02:03:58;6.15;;;4.80;;
30096;SDS011;16915;51.466;3.610;2023-07-24T02:06:23;5.03;;;4.30;;
30096;SDS011;16915;51.466;3.610;2023-07-24T02:08:49;6.93;;;4.47;;
30096;SDS011;16915;51.466;3.610;2023-07-24T02:11:16;10.52;;;4.40;;
30096;SDS011;16915;51.466;3.610;2023-07-24T02:13:45;7.47;;;4.40;;
30096;SDS011;16915;51.466;3.610;2023-07-24T02:16:14;7.30;;;4.32;;
30096;SDS011;16915;51.466;3.610;2023-07-24T02:18:43;9.32;;;4.15;;
30096;SDS011;16915;51.466;3.610;2023-07-24T02:21:08;7.35;;;4.68;;
30096;SDS011;16915;51.466;3.610;2023-07-24T02:23:34;10.63;;;6.57;;
30096;SDS011;16915;51.466;3.610;2023-07-24T02:26:00;7.28;;;4.88;;
30096;SDS011;16915;51.466;3.610;2023-07-24T02:28:26;6.40;;;4.93;;
30096;SDS011;16915;51.466;3.610;2023-07-24T02:30:52;4.78;;;4.13;;
30096;SDS011;16915;51.466;3.610;2023-07-24T02:33:21;8.95;;;5.57;;
30096;SDS011;16915;51.466;3.610;2023-07-24T02:35:48;6.28;;;4.22;;
30096;SDS011;16915;51.466;3.610;2023-07-24T02:38:16;5.05;;;4.30;;
30096;SDS011;16915;51.466;3.610;2023-07-24T02:40:41;9.88;;;4.63;;
30096;SDS011;16915;51.466;3.610;2023-07-24T02:43:08;7.80;;;4.55;;
30096;SDS011;16915;51.466;3.610;2023-07-24T02:45:34;5.72;;;4.47;;
30096;SDS011;16915;51.466;3.610;2023-07-24T02:48:00;5.55;;;4.22;;
30096;SDS011;16915;51.466;3.610;2023-07-24T02:50:27;7.65;;;4.75;;
30096;SDS011;16915;51.466;3.610;2023-07-24T02:52:52;5.35;;;3.72;;
30096;SDS011;16915;51.466;3.610;2023-07-24T02:55:18;10.20;;;4.80;;
30096;SDS011;16915;51.466;3.610;2023-07-24T02:57:43;6.28;;;3.67;;
30096;SDS011;16915;51.466;3.610;2023-07-24T03:00:09;8.15;;;4.05;;
30096;SDS011;16915;51.466;3.610;2023-07-24T03:02:35;7.90;;;4.40;;
30096;SDS011;16915;51.466;3.610;2023-07-24T03:05:01;5.80;;;3.80;;
30096;SDS011;16915;51.466;3.610;2023-07-24T03:07:27;6.88;;;3.83;;
30096;SDS011;16915;51.466;3.610;2023-07-24T03:09:53;4.70;;;4.10;;
30096;SDS011;16915;51.466;3.610;2023-07-24T03:12:18;6.30;;;4.07;;
30096;SDS011;16915;51.466;3.610;2023-07-24T03:14:44;7.53;;;4.15;;
30096;SDS011;16915;51.466;3.610;2023-07-24T03:17:09;7.63;;;3.78;;
30096;SDS011;16915;51.466;3.610;2023-07-24T03:19:35;8.40;;;4.40;;
30096;SDS011;16915;51.466;3.610;2023-07-24T03:22:00;7.90;;;3.88;;
30096;SDS011;16915;51.466;3.610;2023-07-24T03:24:26;7.95;;;3.97;;
30096;SDS011;16915;51.466;3.610;2023-07-24T03:26:52;6.40;;;4.18;;
30096;SDS011;16915;51.466;3.610;2023-07-24T03:29:18;9.63;;;4.63;;
30096;SDS011;16915;51.466;3.610;2023-07-24T03:31:43;9.65;;;4.32;;
30096;SDS011;16915;51.466;3.610;2023-07-24T03:34:09;8.45;;;4.15;;
30096;SDS011;16915;51.466;3.610;2023-07-24T03:36:34;9.27;;;4.63;;
30096;SDS011;16915;51.466;3.610;2023-07-24T03:39:00;9.98;;;4.65;;
30096;SDS011;16915;51.466;3.610;2023-07-24T03:41:27;7.28;;;4.13;;
30096;SDS011;16915;51.466;3.610;2023-07-24T03:43:53;8.57;;;5.05;;
30096;SDS011;16915;51.466;3.610;2023-07-24T03:46:18;6.70;;;4.75;;
30096;SDS011;16915;51.466;3.610;2023-07-24T03:48:44;5.80;;;4.15;;
30096;SDS011;16915;51.466;3.610;2023-07-24T03:51:09;8.73;;;5.10;;
30096;SDS011;16915;51.466;3.610;2023-07-24T03:53:35;9.07;;;4.38;;
30096;SDS011;16915;51.466;3.610;2023-07-24T03:56:01;13.30;;;5.10;;
30096;SDS011;16915;51.466;3.610;2023-07-24T03:58:26;10.02;;;4.95;;
30096;SDS011;16915;51.466;3.610;2023-07-24T04:00:52;7.75;;;4.80;;
30096;SDS011;16915;51.466;3.610;2023-07-24T04:03:17;9.05;;;5.15;;
30096;SDS011;16915;51.466;3.610;2023-07-24T04:05:43;5.10;;;4.53;;
30096;SDS011;16915;51.466;3.610;2023-07-24T04:08:08;9.75;;;5.22;;
30096;SDS011;16915;51.466;3.610;2023-07-24T04:10:34;17.60;;;6.13;;
30096;SDS011;16915;51.466;3.610;2023-07-24T04:13:00;15.23;;;5.43;;
30096;SDS011;16915;51.466;3.610;2023-07-24T04:15:25;12.00;;;5.75;;
30096;SDS011;16915;51.466;3.610;2023-07-24T04:17:51;10.30;;;6.13;;
30096;SDS011;16915;51.466;3.610;2023-07-24T04:20:16;8.75;;;6.40;;
30096;SDS011;16915;51.466;3.610;2023-07-24T04:22:42;11.85;;;6.07;;
30096;SDS011;16915;51.466;3.610;2023-07-24T04:25:08;11.23;;;6.05;;
30096;SDS011;16915;51.466;3.610;2023-07-24T04:27:33;11.25;;;6.63;;
30096;SDS011;16915;51.466;3.610;2023-07-24T04:29:59;9.00;;;6.32;;
30096;SDS011;16915;51.466;3.610;2023-07-24T04:32:27;9.13;;;6.55;;
30096;SDS011;16915;51.466;3.610;2023-07-24T04:34:53;14.60;;;7.32;;
30096;SDS011;16915;51.466;3.610;2023-07-24T04:37:18;11.50;;;7.07;;
30096;SDS011;16915;51.466;3.610;2023-07-24T04:39:44;12.88;;;7.28;;
30096;SDS011;16915;51.466;3.610;2023-07-24T04:42:10;8.32;;;6.15;;
30096;SDS011;16915;51.466;3.610;2023-07-24T04:44:35;11.27;;;6.00;;
30096;SDS011;16915;51.466;3.610;2023-07-24T04:47:01;10.13;;;6.28;;
30096;SDS011;16915;51.466;3.610;2023-07-24T04:49:30;7.32;;;5.57;;
30096;SDS011;16915;51.466;3.610;2023-07-24T04:51:57;6.78;;;4.88;;
30096;SDS011;16915;51.466;3.610;2023-07-24T04:54:23;8.40;;;5.43;;
30096;SDS011;16915;51.466;3.610;2023-07-24T04:56:49;9.95;;;4.78;;
30096;SDS011;16915;51.466;3.610;2023-07-24T04:59:15;9.88;;;4.78;;
30096;SDS011;16915;51.466;3.610;2023-07-24T05:01:40;7.10;;;5.63;;
30096;SDS011;16915;51.466;3.610;2023-07-24T05:04:06;8.70;;;4.68;;
30096;SDS011;16915;51.466;3.610;2023-07-24T05:06:31;7.22;;;4.70;;
30096;SDS011;16915;51.466;3.610;2023-07-24T05:08:57;10.43;;;5.30;;
30096;SDS011;16915;51.466;3.610;2023-07-24T05:11:22;5.57;;;4.50;;
30096;SDS011;16915;51.466;3.610;2023-07-24T05:13:48;8.63;;;5.05;;
30096;SDS011;16915;51.466;3.610;2023-07-24T05:16:14;9.32;;;4.70;;
30096;SDS011;16915;51.466;3.610;2023-07-24T05:18:39;7.00;;;5.20;;
30096;SDS011;16915;51.466;3.610;2023-07-24T05:21:05;12.82;;;5.35;;
30096;SDS011;16915;51.466;3.610;2023-07-24T05:23:30;10.35;;;5.93;;
30096;SDS011;16915;51.466;3.610;2023-07-24T05:26:02;10.50;;;5.55;;
30096;SDS011;16915;51.466;3.610;2023-07-24T05:28:29;11.55;;;5.38;;
30096;SDS011;16915;51.466;3.610;2023-07-24T05:30:55;11.23;;;5.70;;
30096;SDS011;16915;51.466;3.610;2023-07-24T05:33:24;7.72;;;4.97;;
30096;SDS011;16915;51.466;3.610;2023-07-24T05:35:50;12.10;;;5.40;;
30096;SDS011;16915;51.466;3.610;2023-07-24T05:38:15;12.77;;;5.65;;
30096;SDS011;16915;51.466;3.610;2023-07-24T05:40:41;9.98;;;5.22;;
30096;SDS011;16915;51.466;3.610;2023-07-24T05:43:07;10.23;;;4.68;;
30096;SDS011;16915;51.466;3.610;2023-07-24T05:45:32;10.07;;;4.80;;
30096;SDS011;16915;51.466;3.610;2023-07-24T05:47:58;6.55;;;4.43;;
30096;SDS011;16915;51.466;3.610;2023-07-24T05:50:23;10.65;;;5.72;;
30096;SDS011;16915;51.466;3.610;2023-07-24T05:52:49;8.38;;;4.32;;
30096;SDS011;16915;51.466;3.610;2023-07-24T05:55:14;9.88;;;5.05;;
30096;SDS011;16915;51.466;3.610;2023-07-24T05:57:40;7.82;;;4.40;;
30096;SDS011;16915;51.466;3.610;2023-07-24T06:00:06;9.70;;;4.45;;
30096;SDS011;16915;51.466;3.610;2023-07-24T06:02:32;9.48;;;4.70;;
30096;SDS011;16915;51.466;3.610;2023-07-24T06:04:58;13.07;;;4.57;;
30096;SDS011;16915;51.466;3.610;2023-07-24T06:07:23;7.38;;;3.55;;
30096;SDS011;16915;51.466;3.610;2023-07-24T06:09:49;9.68;;;4.30;;
30096;SDS011;16915;51.466;3.610;2023-07-24T06:12:15;9.77;;;4.32;;
30096;SDS011;16915;51.466;3.610;2023-07-24T06:14:40;10.63;;;4.45;;
30096;SDS011;16915;51.466;3.610;2023-07-24T06:17:06;8.00;;;3.65;;
30096;SDS011;16915;51.466;3.610;2023-07-24T06:19:32;9.43;;;3.80;;
30096;SDS011;16915;51.466;3.610;2023-07-24T06:21:57;7.18;;;4.30;;
30096;SDS011;16915;51.466;3.610;2023-07-24T06:24:23;8.93;;;4.10;;
30096;SDS011;16915;51.466;3.610;2023-07-24T06:26:49;8.20;;;4.00;;
30096;SDS011;16915;51.466;3.610;2023-07-24T06:29:15;10.55;;;4.35;;
30096;SDS011;16915;51.466;3.610;2023-07-24T06:31:41;8.57;;;4.20;;
30096;SDS011;16915;51.466;3.610;2023-07-24T06:34:06;10.85;;;4.38;;
30096;SDS011;16915;51.466;3.610;2023-07-24T06:36:32;9.93;;;4.05;;
30096;SDS011;16915;51.466;3.610;2023-07-24T06:38:58;8.25;;;4.60;;
30096;SDS011;16915;51.466;3.610;2023-07-24T06:41:24;7.95;;;4.53;;
30096;SDS011;16915;51.466;3.610;2023-07-24T06:43:50;12.30;;;4.68;;
30096;SDS011;16915;51.466;3.610;2023-07-24T06:46:16;11.90;;;3.63;;
30096;SDS011;16915;51.466;3.610;2023-07-24T06:48:41;6.22;;;3.75;;
30096;SDS011;16915;51.466;3.610;2023-07-24T06:51:07;7.85;;;3.95;;
30096;SDS011;16915;51.466;3.610;2023-07-24T06:53:33;6.47;;;3.90;;
30096;SDS011;16915;51.466;3.610;2023-07-24T06:55:58;8.93;;;4.45;;
30096;SDS011;16915;51.466;3.610;2023-07-24T06:58:24;9.95;;;4.00;;
30096;SDS011;16915;51.466;3.610;2023-07-24T07:00:50;11.10;;;4.93;;
30096;SDS011;16915;51.466;3.610;2023-07-24T07:03:15;9.27;;;4.07;;
30096;SDS011;16915;51.466;3.610;2023-07-24T07:05:41;10.63;;;4.63;;
30096;SDS011;16915;51.466;3.610;2023-07-24T07:08:06;9.50;;;4.40;;
30096;SDS011;16915;51.466;3.610;2023-07-24T07:10:32;9.18;;;4.43;;
30096;SDS011;16915;51.466;3.610;2023-07-24T07:12:57;12.32;;;4.78;;
30096;SDS011;16915;51.466;3.610;2023-07-24T07:15:23;10.02;;;4.85;;
30096;SDS011;16915;51.466;3.610;2023-07-24T07:17:48;10.60;;;4.57;;
30096;SDS011;16915;51.466;3.610;2023-07-24T07:20:14;6.53;;;4.18;;
30096;SDS011;16915;51.466;3.610;2023-07-24T07:22:40;8.80;;;3.92;;
30096;SDS011;16915;51.466;3.610;2023-07-24T07:25:05;9.68;;;4.20;;
30096;SDS011;16915;51.466;3.610;2023-07-24T07:27:31;10.00;;;4.32;;
30096;SDS011;16915;51.466;3.610;2023-07-24T07:29:57;7.53;;;4.60;;
30096;SDS011;16915;51.466;3.610;2023-07-24T07:32:22;10.38;;;4.35;;
30096;SDS011;16915;51.466;3.610;2023-07-24T07:34:48;6.90;;;4.13;;
30096;SDS011;16915;51.466;3.610;2023-07-24T07:37:13;8.68;;;4.63;;
30096;SDS011;16915;51.466;3.610;2023-07-24T07:39:39;7.57;;;4.07;;
30096;SDS011;16915;51.466;3.610;2023-07-24T07:42:05;6.60;;;4.53;;
30096;SDS011;16915;51.466;3.610;2023-07-24T07:44:30;8.88;;;4.55;;
30096;SDS011;16915;51.466;3.610;2023-07-24T07:46:56;11.45;;;4.10;;
30096;SDS011;16915;51.466;3.610;2023-07-24T07:49:21;8.82;;;4.47;;
30096;SDS011;16915;51.466;3.610;2023-07-24T07:51:47;10.55;;;4.25;;
30096;SDS011;16915;51.466;3.610;2023-07-24T07:54:13;11.18;;;4.47;;
30096;SDS011;16915;51.466;3.610;2023-07-24T07:56:40;7.78;;;4.30;;
30096;SDS011;16915;51.466;3.610;2023-07-24T07:59:06;4.85;;;3.67;;
30096;SDS011;16915;51.466;3.610;2023-07-24T08:01:31;8.57;;;4.18;;
30096;SDS011;16915;51.466;3.610;2023-07-24T08:03:57;9.40;;;4.72;;
30096;SDS011;16915;51.466;3.610;2023-07-24T08:06:23;10.57;;;5.28;;
30096;SDS011;16915;51.466;3.610;2023-07-24T08:08:49;10.43;;;5.82;;
30096;SDS011;16915;51.466;3.610;2023-07-24T08:11:15;14.27;;;5.57;;
30096;SDS011;16915;51.466;3.610;2023-07-24T08:13:40;12.57;;;6.28;;
30096;SDS011;16915;51.466;3.610;2023-07-24T08:16:12;11.20;;;6.05;;
30096;SDS011;16915;51.466;3.610;2023-07-24T08:18:43;8.93;;;6.82;;
30096;SDS011;16915;51.466;3.610;2023-07-24T08:21:12;13.02;;;7.70;;
30096;SDS011;16915;51.466;3.610;2023-07-24T08:23:39;8.13;;;7.25;;
30096;SDS011;16915;51.466;3.610;2023-07-24T08:26:05;10.77;;;6.95;;
30096;SDS011;16915;51.466;3.610;2023-07-24T08:28:31;16.30;;;8.30;;
30096;SDS011;16915;51.466;3.610;2023-07-24T08:30:57;12.02;;;7.22;;
30096;SDS011;16915;51.466;3.610;2023-07-24T08:33:23;8.38;;;6.88;;
30096;SDS011;16915;51.466;3.610;2023-07-24T08:36:05;12.38;;;6.93;;
30096;SDS011;16915;51.466;3.610;2023-07-24T08:38:32;11.82;;;6.72;;
30096;SDS011;16915;51.466;3.610;2023-07-24T08:43:27;9.95;;;6.60;;
30096;SDS011;16915;51.466;3.610;2023-07-24T08:45:54;9.57;;;6.85;;
30096;SDS011;16915;51.466;3.610;2023-07-24T08:48:21;11.45;;;7.38;;
30096;SDS011;16915;51.466;3.610;2023-07-24T08:50:47;9.77;;;7.82;;
30096;SDS011;16915;51.466;3.610;2023-07-24T08:53:15;12.05;;;6.88;;
30096;SDS011;16915;51.466;3.610;2023-07-24T08:55:43;11.40;;;7.03;;
30096;SDS011;16915;51.466;3.610;2023-07-24T08:58:10;8.52;;;6.28;;
30096;SDS011;16915;51.466;3.610;2023-07-24T09:00:35;8.82;;;6.20;;
30096;SDS011;16915;51.466;3.610;2023-07-24T09:03:01;7.03;;;5.80;;
30096;SDS011;16915;51.466;3.610;2023-07-24T09:05:26;7.78;;;5.82;;
30096;SDS011;16915;51.466;3.610;2023-07-24T09:07:52;8.48;;;5.63;;
30096;SDS011;16915;51.466;3.610;2023-07-24T09:10:23;7.63;;;5.53;;
30096;SDS011;16915;51.466;3.610;2023-07-24T09:12:50;13.70;;;6.10;;
30096;SDS011;16915;51.466;3.610;2023-07-24T09:15:16;8.10;;;5.13;;
30096;SDS011;16915;51.466;3.610;2023-07-24T09:17:48;12.50;;;5.38;;
30096;SDS011;16915;51.466;3.610;2023-07-24T09:20:18;7.85;;;4.85;;
30096;SDS011;16915;51.466;3.610;2023-07-24T09:22:51;8.25;;;4.95;;
30096;SDS011;16915;51.466;3.610;2023-07-24T09:25:17;6.22;;;4.00;;
30096;SDS011;16915;51.466;3.610;2023-07-24T09:27:43;11.48;;;4.97;;
30096;SDS011;16915;51.466;3.610;2023-07-24T09:30:18;5.63;;;4.10;;
30096;SDS011;16915;51.466;3.610;2023-07-24T09:32:51;5.47;;;3.90;;
30096;SDS011;16915;51.466;3.610;2023-07-24T09:35:17;6.68;;;4.00;;
30096;SDS011;16915;51.466;3.610;2023-07-24T09:37:44;6.35;;;3.97;;
30096;SDS011;16915;51.466;3.610;2023-07-24T09:40:11;7.85;;;4.35;;
30096;SDS011;16915;51.466;3.610;2023-07-24T09:42:38;6.28;;;4.10;;
30096;SDS011;16915;51.466;3.610;2023-07-24T09:45:05;7.03;;;4.43;;
30096;SDS011;16915;51.466;3.610;2023-07-24T09:47:33;7.78;;;4.10;;
30096;SDS011;16915;51.466;3.610;2023-07-24T09:49:59;4.55;;;3.40;;
30096;SDS011;16915;51.466;3.610;2023-07-24T09:52:28;5.28;;;2.67;;
30096;SDS011;16915;51.466;3.610;2023-07-24T09:57:22;3.08;;;2.45;;
30096;SDS011;16915;51.466;3.610;2023-07-24T09:59:49;9.88;;;2.85;;
30096;SDS011;16915;51.466;3.610;2023-07-24T10:02:16;4.93;;;2.90;;
30096;SDS011;16915;51.466;3.610;2023-07-24T10:04:42;6.05;;;2.80;;
30096;SDS011;16915;51.466;3.610;2023-07-24T10:07:09;4.68;;;2.65;;
30096;SDS011;16915;51.466;3.610;2023-07-24T10:09:35;5.63;;;2.20;;
30096;SDS011;16915;51.466;3.610;2023-07-24T10:12:02;6.05;;;2.30;;
30096;SDS011;16915;51.466;3.610;2023-07-24T10:14:28;6.97;;;2.00;;
30096;SDS011;16915;51.466;3.610;2023-07-24T10:16:55;3.75;;;1.90;;
30096;SDS011;16915;51.466;3.610;2023-07-24T10:19:21;4.32;;;1.70;;
30096;SDS011;16915;51.466;3.610;2023-07-24T10:21:47;5.65;;;1.70;;
30096;SDS011;16915;51.466;3.610;2023-07-24T10:24:17;3.83;;;1.67;;
30096;SDS011;16915;51.466;3.610;2023-07-24T10:26:43;4.13;;;2.53;;
30096;SDS011;16915;51.466;3.610;2023-07-24T10:29:09;4.28;;;3.00;;
30096;SDS011;16915;51.466;3.610;2023-07-24T10:31:35;5.53;;;2.15;;
30096;SDS011;16915;51.466;3.610;2023-07-24T10:34:07;1.90;;;1.27;;
30096;SDS011;16915;51.466;3.610;2023-07-24T10:36:33;5.45;;;2.70;;
30096;SDS011;16915;51.466;3.610;2023-07-24T10:39:00;4.15;;;1.83;;
30096;SDS011;16915;51.466;3.610;2023-07-24T10:41:37;4.75;;;1.63;;
30096;SDS011;16915;51.466;3.610;2023-07-24T10:44:04;6.47;;;2.05;;
30096;SDS011;16915;51.466;3.610;2023-07-24T10:46:37;3.75;;;1.48;;
30096;SDS011;16915;51.466;3.610;2023-07-24T10:49:07;4.38;;;1.70;;
30096;SDS011;16915;51.466;3.610;2023-07-24T10:51:33;2.38;;;1.50;;
30096;SDS011;16915;51.466;3.610;2023-07-24T10:54:02;6.93;;;2.65;;
30096;SDS011;16915;51.466;3.610;2023-07-24T10:56:28;3.92;;;1.65;;
30096;SDS011;16915;51.466;3.610;2023-07-24T10:58:54;3.17;;;2.03;;
30096;SDS011;16915;51.466;3.610;2023-07-24T11:01:20;3.92;;;1.60;;
30096;SDS011;16915;51.466;3.610;2023-07-24T11:03:45;2.80;;;1.58;;
30096;SDS011;16915;51.466;3.610;2023-07-24T11:06:12;6.10;;;2.10;;
30096;SDS011;16915;51.466;3.610;2023-07-24T11:08:42;3.83;;;1.80;;
30096;SDS011;16915;51.466;3.610;2023-07-24T11:11:15;3.00;;;1.70;;
30096;SDS011;16915;51.466;3.610;2023-07-24T11:13:41;2.75;;;1.55;;
30096;SDS011;16915;51.466;3.610;2023-07-24T11:16:07;3.83;;;1.48;;
30096;SDS011;16915;51.466;3.610;2023-07-24T11:18:43;3.95;;;1.63;;
30096;SDS011;16915;51.466;3.610;2023-07-24T11:21:12;4.35;;;1.45;;
30096;SDS011;16915;51.466;3.610;2023-07-24T11:23:48;3.42;;;1.40;;
30096;SDS011;16915;51.466;3.610;2023-07-24T11:26:21;3.17;;;1.60;;
30096;SDS011;16915;51.466;3.610;2023-07-24T11:28:48;3.42;;;1.40;;
30096;SDS011;16915;51.466;3.610;2023-07-24T11:31:15;3.08;;;1.50;;
30096;SDS011;16915;51.466;3.610;2023-07-24T11:33:44;2.40;;;2.20;;
30096;SDS011;16915;51.466;3.610;2023-07-24T11:36:10;3.88;;;1.60;;
30096;SDS011;16915;51.466;3.610;2023-07-24T11:38:36;5.78;;;1.92;;
30096;SDS011;16915;51.466;3.610;2023-07-24T11:41:03;3.03;;;2.00;;
30096;SDS011;16915;51.466;3.610;2023-07-24T11:43:29;4.60;;;1.63;;
30096;SDS011;16915;51.466;3.610;2023-07-24T11:45:55;3.90;;;1.60;;
30096;SDS011;16915;51.466;3.610;2023-07-24T11:48:22;3.63;;;1.90;;
30096;SDS011;16915;51.466;3.610;2023-07-24T11:50:49;2.40;;;1.77;;
30096;SDS011;16915;51.466;3.610;2023-07-24T11:55:50;4.03;;;1.40;;
30096;SDS011;16915;51.466;3.610;2023-07-24T11:58:17;6.78;;;2.17;;
30096;SDS011;16915;51.466;3.610;2023-07-24T12:00:43;2.75;;;1.83;;
30096;SDS011;16915;51.466;3.610;2023-07-24T12:03:11;3.10;;;2.20;;
30096;SDS011;16915;51.466;3.610;2023-07-24T12:05:38;4.53;;;1.88;;
30096;SDS011;16915;51.466;3.610;2023-07-24T12:08:04;4.30;;;1.80;;
30096;SDS011;16915;51.466;3.610;2023-07-24T12:10:30;2.63;;;2.20;;
30096;SDS011;16915;51.466;3.610;2023-07-24T12:12:58;3.97;;;1.70;;
30096;SDS011;16915;51.466;3.610;2023-07-24T12:15:25;2.92;;;1.75;;
30096;SDS011;16915;51.466;3.610;2023-07-24T12:17:52;4.53;;;2.17;;
30096;SDS011;16915;51.466;3.610;2023-07-24T12:20:17;6.05;;;4.28;;
30096;SDS011;16915;51.466;3.610;2023-07-24T12:22:43;5.68;;;2.30;;
30096;SDS011;16915;51.466;3.610;2023-07-24T12:25:08;4.38;;;3.13;;
30096;SDS011;16915;51.466;3.610;2023-07-24T12:27:34;4.65;;;4.15;;
30096;SDS011;16915;51.466;3.610;2023-07-24T12:30:00;2.20;;;2.00;;
30096;SDS011;16915;51.466;3.610;2023-07-24T12:32:26;4.95;;;2.90;;
30096;SDS011;16915;51.466;3.610;2023-07-24T12:34:52;3.78;;;2.00;;
30096;SDS011;16915;51.466;3.610;2023-07-24T12:37:18;4.18;;;2.00;;
30096;SDS011;16915;51.466;3.610;2023-07-24T12:39:47;3.40;;;3.00;;
30096;SDS011;16915;51.466;3.610;2023-07-24T12:42:13;4.10;;;2.10;;
30096;SDS011;16915;51.466;3.610;2023-07-24T12:44:40;3.45;;;2.03;;
30096;SDS011;16915;51.466;3.610;2023-07-24T12:47:06;2.42;;;1.80;;
30096;SDS011;16915;51.466;3.610;2023-07-24T12:49:32;2.33;;;2.10;;
30096;SDS011;16915;51.466;3.610;2023-07-24T12:51:58;3.28;;;2.00;;
30096;SDS011;16915;51.466;3.610;2023-07-24T12:54:24;2.55;;;1.58;;
30096;SDS011;16915;51.466;3.610;2023-07-24T12:56:50;3.45;;;2.40;;
30096;SDS011;16915;51.466;3.610;2023-07-24T12:59:17;4.05;;;2.10;;
30096;SDS011;16915;51.466;3.610;2023-07-24T13:01:43;3.25;;;1.83;;
30096;SDS011;16915;51.466;3.610;2023-07-24T13:04:09;3.85;;;1.42;;
30096;SDS011;16915;51.466;3.610;2023-07-24T13:06:34;4.47;;;2.42;;
30096;SDS011;16915;51.466;3.610;2023-07-24T13:09:00;3.65;;;1.83;;
30096;SDS011;16915;51.466;3.610;2023-07-24T13:11:26;2.08;;;1.58;;
30096;SDS011;16915;51.466;3.610;2023-07-24T13:13:53;4.15;;;2.00;;
30096;SDS011;16915;51.466;3.610;2023-07-24T13:16:19;3.35;;;2.20;;
30096;SDS011;16915;51.466;3.610;2023-07-24T13:18:44;2.40;;;1.90;;
30096;SDS011;16915;51.466;3.610;2023-07-24T13:21:10;4.07;;;2.40;;
30096;SDS011;16915;51.466;3.610;2023-07-24T13:23:36;3.95;;;2.80;;
30096;SDS011;16915;51.466;3.610;2023-07-24T13:26:02;4.25;;;2.80;;
30096;SDS011;16915;51.466;3.610;2023-07-24T13:28:27;3.38;;;2.38;;
30096;SDS011;16915;51.466;3.610;2023-07-24T13:30:53;4.38;;;2.67;;
30096;SDS011;16915;51.466;3.610;2023-07-24T13:33:19;6.13;;;2.75;;
30096;SDS011;16915;51.466;3.610;2023-07-24T13:35:46;7.03;;;1.23;;
30096;SDS011;16915;51.466;3.610;2023-07-24T13:38:12;5.10;;;1.65;;
30096;SDS011;16915;51.466;3.610;2023-07-24T13:40:38;4.20;;;1.13;;
30096;SDS011;16915;51.466;3.610;2023-07-24T13:43:04;2.75;;;0.90;;
30096;SDS011;16915;51.466;3.610;2023-07-24T13:45:30;6.22;;;1.30;;
30096;SDS011;16915;51.466;3.610;2023-07-24T13:47:56;4.60;;;1.08;;
30096;SDS011;16915;51.466;3.610;2023-07-24T13:50:23;1.48;;;0.50;;
30096;SDS011;16915;51.466;3.610;2023-07-24T13:52:49;1.98;;;0.52;;
30096;SDS011;16915;51.466;3.610;2023-07-24T13:55:14;3.10;;;0.75;;
30096;SDS011;16915;51.466;3.610;2023-07-24T13:57:40;1.42;;;0.68;;
30096;SDS011;16915;51.466;3.610;2023-07-24T14:00:06;1.13;;;0.55;;
30096;SDS011;16915;51.466;3.610;2023-07-24T14:02:32;2.92;;;0.55;;
30096;SDS011;16915;51.466;3.610;2023-07-24T14:04:58;2.60;;;0.47;;
30096;SDS011;16915;51.466;3.610;2023-07-24T14:07:24;4.10;;;0.50;;
30096;SDS011;16915;51.466;3.610;2023-07-24T14:09:49;3.17;;;0.70;;
30096;SDS011;16915;51.466;3.610;2023-07-24T14:12:15;4.60;;;0.65;;
30096;SDS011;16915;51.466;3.610;2023-07-24T14:14:41;4.30;;;0.52;;
30096;SDS011;16915;51.466;3.610;2023-07-24T14:17:06;2.70;;;0.60;;
30096;SDS011;16915;51.466;3.610;2023-07-24T14:19:32;1.98;;;0.50;;
30096;SDS011;16915;51.466;3.610;2023-07-24T14:21:58;1.90;;;0.57;;
30096;SDS011;16915;51.466;3.610;2023-07-24T14:24:23;2.40;;;0.40;;
30096;SDS011;16915;51.466;3.610;2023-07-24T14:26:49;1.52;;;0.40;;
30096;SDS011;16915;51.466;3.610;2023-07-24T14:29:14;4.68;;;0.75;;
30096;SDS011;16915;51.466;3.610;2023-07-24T14:31:43;0.88;;;0.45;;
30096;SDS011;16915;51.466;3.610;2023-07-24T14:34:09;0.75;;;0.30;;
30096;SDS011;16915;51.466;3.610;2023-07-24T14:36:37;1.27;;;0.25;;
30096;SDS011;16915;51.466;3.610;2023-07-24T14:39:03;2.15;;;0.38;;
30096;SDS011;16915;51.466;3.610;2023-07-24T14:41:29;3.20;;;0.63;;
30096;SDS011;16915;51.466;3.610;2023-07-24T14:43:55;0.93;;;0.28;;
30096;SDS011;16915;51.466;3.610;2023-07-24T14:46:20;2.78;;;0.40;;
30096;SDS011;16915;51.466;3.610;2023-07-24T14:48:49;1.35;;;0.30;;
30096;SDS011;16915;51.466;3.610;2023-07-24T14:51:14;1.08;;;0.40;;
30096;SDS011;16915;51.466;3.610;2023-07-24T14:53:40;1.02;;;0.30;;